createdAt,value
2019-03-25T00:00:54.691Z,4.70
2019-03-25T00:03:23.124Z,4.60
2019-03-25T00:05:51.647Z,4.90
2019-03-25T00:08:20.086Z,4.63
2019-03-25T00:10:48.683Z,4.70
2019-03-25T00:13:17.106Z,4.43
2019-03-25T00:15:45.571Z,4.37
2019-03-25T00:18:13.996Z,5.23
2019-03-25T00:20:42.440Z,4.63
2019-03-25T00:23:10.896Z,4.87
2019-03-25T00:25:39.328Z,4.50
2019-03-25T00:28:07.776Z,4.20
2019-03-25T00:30:36.265Z,4.80
2019-03-25T00:33:04.783Z,4.43
2019-03-25T00:35:33.215Z,4.53
2019-03-25T00:38:01.659Z,4.43
2019-03-25T00:40:30.093Z,4.63
2019-03-25T00:42:58.548Z,4.13
2019-03-25T00:45:26.976Z,4.27
2019-03-25T00:47:55.410Z,3.77
2019-03-25T00:50:23.840Z,4.27
2019-03-25T00:52:52.308Z,4.20
2019-03-25T00:55:20.723Z,4.13
2019-03-25T00:57:49.185Z,4.33
2019-03-25T01:00:18.040Z,3.83
2019-03-25T01:02:46.599Z,4.33
2019-03-25T01:05:15.313Z,3.67
2019-03-25T01:07:43.845Z,4.17
2019-03-25T01:10:12.512Z,4.20
2019-03-25T01:12:40.953Z,4.37
2019-03-25T01:15:09.560Z,4.40
2019-03-25T01:17:38.008Z,3.93
2019-03-25T01:20:08.011Z,4.07
2019-03-25T01:22:36.486Z,4.37
2019-03-25T01:25:06.787Z,4.53
2019-03-25T01:27:35.244Z,4.60
2019-03-25T01:30:05.823Z,4.53
2019-03-25T01:32:34.281Z,4.47
2019-03-25T01:35:02.718Z,4.27
2019-03-25T01:37:31.133Z,4.90
2019-03-25T01:39:59.575Z,4.53
2019-03-25T01:42:28.019Z,4.60
2019-03-25T01:44:56.455Z,4.13
2019-03-25T01:47:24.887Z,4.43
2019-03-25T01:49:53.333Z,4.27
2019-03-25T01:52:21.755Z,4.70
2019-03-25T01:54:50.222Z,4.57
2019-03-25T01:57:18.652Z,4.23
2019-03-25T01:59:47.104Z,4.97
2019-03-25T02:02:15.599Z,4.20
2019-03-25T02:04:44.043Z,4.53
2019-03-25T02:07:12.639Z,4.50
2019-03-25T02:09:41.106Z,5.00
2019-03-25T02:12:09.607Z,4.00
2019-03-25T02:14:38.055Z,4.80
2019-03-25T02:17:06.558Z,4.27
2019-03-25T02:19:34.979Z,4.00
2019-03-25T02:22:03.432Z,4.83
2019-03-25T02:24:31.903Z,4.50
2019-03-25T02:27:00.394Z,4.23
2019-03-25T02:29:28.820Z,4.50
2019-03-25T02:31:57.278Z,4.70
2019-03-25T02:34:25.715Z,4.80
2019-03-25T02:36:54.172Z,5.30
2019-03-25T02:39:22.605Z,4.90
2019-03-25T02:41:51.124Z,5.13
2019-03-25T02:44:19.553Z,4.57
2019-03-25T02:46:48.081Z,4.97
2019-03-25T02:49:16.502Z,4.90
2019-03-25T02:51:44.971Z,4.60
2019-03-25T02:54:13.464Z,4.90
2019-03-25T02:56:41.920Z,4.63
2019-03-25T02:59:10.355Z,5.07
2019-03-25T03:01:38.888Z,4.90
2019-03-25T03:04:07.315Z,5.03
2019-03-25T03:06:35.787Z,5.30
2019-03-25T03:09:06.588Z,5.20
2019-03-25T03:11:35.034Z,5.10
2019-03-25T03:14:03.475Z,4.97
2019-03-25T03:16:31.921Z,4.73
2019-03-25T03:19:00.347Z,4.30
2019-03-25T03:21:28.807Z,5.17
2019-03-25T03:23:57.225Z,4.50
2019-03-25T03:26:25.756Z,5.07
2019-03-25T03:28:54.285Z,4.90
2019-03-25T03:31:22.718Z,5.27
2019-03-25T03:33:51.193Z,4.87
2019-03-25T03:36:19.616Z,4.93
2019-03-25T03:38:48.165Z,4.93
2019-03-25T03:41:16.670Z,4.90
2019-03-25T03:43:45.184Z,5.00
2019-03-25T03:46:13.618Z,5.20
2019-03-25T03:48:42.058Z,5.13
2019-03-25T03:51:10.663Z,5.73
2019-03-25T03:53:39.379Z,5.53
2019-03-25T03:56:13.256Z,5.03
2019-03-25T03:58:39.240Z,5.67
2019-03-25T04:01:07.736Z,5.17
2019-03-25T04:03:36.182Z,5.20
2019-03-25T04:06:04.603Z,5.07
2019-03-25T04:08:33.069Z,5.60
2019-03-25T04:11:01.491Z,5.80
2019-03-25T04:13:29.941Z,6.07
2019-03-25T04:16:01.177Z,6.20
2019-03-25T04:18:28.595Z,5.90
2019-03-25T04:20:57.047Z,5.63
2019-03-25T04:23:25.541Z,5.83
2019-03-25T04:25:54.151Z,6.63
2019-03-25T04:28:22.574Z,6.40
2019-03-25T04:30:51.090Z,6.13
2019-03-25T04:33:19.583Z,6.90
2019-03-25T04:35:48.039Z,7.00
2019-03-25T04:38:16.465Z,6.23
2019-03-25T04:40:44.924Z,6.90
2019-03-25T04:43:13.348Z,6.60
2019-03-25T04:45:41.815Z,6.57
2019-03-25T04:48:10.227Z,6.73
2019-03-25T04:50:38.679Z,6.93
2019-03-25T04:53:07.104Z,7.03
2019-03-25T04:55:35.572Z,6.70
2019-03-25T04:58:04.142Z,6.77
2019-03-25T05:00:34.724Z,6.57
2019-03-25T05:03:03.254Z,7.17
2019-03-25T05:05:31.755Z,7.00
2019-03-25T05:08:00.187Z,6.87
2019-03-25T05:10:28.634Z,7.03
2019-03-25T05:12:57.070Z,8.03
2019-03-25T05:15:25.517Z,8.67
2019-03-25T05:17:53.947Z,6.83
2019-03-25T05:20:22.399Z,7.57
2019-03-25T05:22:50.843Z,5.63
2019-03-25T05:25:19.287Z,5.77
2019-03-25T05:27:47.803Z,5.87
2019-03-25T05:30:16.328Z,5.10
2019-03-25T05:32:44.768Z,4.87
2019-03-25T05:35:13.207Z,4.53
2019-03-25T05:37:41.655Z,4.73
2019-03-25T05:40:10.527Z,4.10
2019-03-25T05:42:38.971Z,5.47
2019-03-25T05:45:07.836Z,5.07
2019-03-25T05:47:36.293Z,4.93
2019-03-25T05:50:09.498Z,5.23
2019-03-25T05:52:38.007Z,5.23
2019-03-25T05:55:07.873Z,3.80
2019-03-25T05:57:36.332Z,4.07
2019-03-25T06:00:05.886Z,4.67
2019-03-25T06:02:34.541Z,4.20
2019-03-25T06:05:03.149Z,4.27
2019-03-25T06:07:31.597Z,4.90
2019-03-25T06:10:00.026Z,5.00
2019-03-25T06:12:28.483Z,4.60
2019-03-25T06:14:56.921Z,5.00
2019-03-25T06:17:25.356Z,4.63
2019-03-25T06:19:53.810Z,4.10
2019-03-25T06:22:22.239Z,4.63
2019-03-25T06:24:50.683Z,3.90
2019-03-25T06:27:19.128Z,4.30
2019-03-25T06:29:47.599Z,3.80
2019-03-25T06:32:16.023Z,4.03
2019-03-25T06:34:44.479Z,3.77
2019-03-25T06:37:12.930Z,4.57
2019-03-25T06:39:41.373Z,3.80
2019-03-25T06:42:09.796Z,3.73
2019-03-25T06:44:38.402Z,4.23
2019-03-25T06:47:06.888Z,4.87
2019-03-25T06:49:35.344Z,4.67
2019-03-25T06:52:03.952Z,3.97
2019-03-25T06:54:32.403Z,4.10
2019-03-25T06:57:00.827Z,4.00
2019-03-25T06:59:29.281Z,4.83
2019-03-25T07:01:57.710Z,4.30
2019-03-25T07:04:26.140Z,4.63
2019-03-25T07:06:54.590Z,3.90
2019-03-25T07:09:23.039Z,4.30
2019-03-25T07:11:51.487Z,4.40
2019-03-25T07:14:20.220Z,4.40
2019-03-25T07:16:48.671Z,4.47
2019-03-25T07:19:17.096Z,4.20
2019-03-25T07:21:45.574Z,4.57
2019-03-25T07:24:14.064Z,3.80
2019-03-25T07:26:42.528Z,4.50
2019-03-25T07:29:10.948Z,3.93
2019-03-25T07:31:39.550Z,4.43
2019-03-25T07:34:07.991Z,4.60
2019-03-25T07:36:36.518Z,4.03
2019-03-25T07:39:06.590Z,4.30
2019-03-25T07:41:34.724Z,4.13
2019-03-25T07:44:03.301Z,4.70
2019-03-25T07:46:31.763Z,4.23
2019-03-25T07:49:00.194Z,3.97
2019-03-25T07:51:28.647Z,4.57
2019-03-25T07:53:57.118Z,4.57
2019-03-25T07:56:25.613Z,4.77
2019-03-25T07:58:54.057Z,4.87
2019-03-25T08:04:51.699Z,4.60
2019-03-25T08:07:20.205Z,4.60
2019-03-25T08:09:48.787Z,4.93
2019-03-25T08:12:17.281Z,4.80
2019-03-25T08:14:45.770Z,4.73
2019-03-25T08:17:14.387Z,4.87
2019-03-25T08:19:42.952Z,4.87
2019-03-25T08:22:11.448Z,4.27
2019-03-25T08:24:39.899Z,4.50
2019-03-25T08:27:08.394Z,4.10
2019-03-25T08:29:36.847Z,4.40
2019-03-25T08:32:05.284Z,4.37
2019-03-25T08:34:33.737Z,4.43
2019-03-25T08:37:04.324Z,3.83
2019-03-25T08:39:32.335Z,4.30
2019-03-25T08:42:00.763Z,4.50
2019-03-25T08:44:29.224Z,3.90
2019-03-25T08:46:57.661Z,4.07
2019-03-25T08:49:26.188Z,4.03
2019-03-25T08:51:54.619Z,3.77
2019-03-25T08:54:23.193Z,3.60
2019-03-25T08:56:51.615Z,3.90
2019-03-25T08:59:20.123Z,3.73
2019-03-25T09:01:48.566Z,4.03
2019-03-25T09:04:17.018Z,3.50
2019-03-25T09:06:47.843Z,3.80
2019-03-25T09:09:15.627Z,3.70
2019-03-25T09:11:44.061Z,4.10
2019-03-25T09:14:12.512Z,3.60
2019-03-25T09:16:41.018Z,3.80
2019-03-25T09:19:09.555Z,3.00
2019-03-25T09:21:38.351Z,3.70
2019-03-25T09:24:06.875Z,3.73
2019-03-25T09:26:35.402Z,3.70
2019-03-25T09:29:03.891Z,4.23
2019-03-25T09:31:36.982Z,3.50
2019-03-25T09:34:02.502Z,3.90
2019-03-25T09:36:30.983Z,4.10
2019-03-25T09:38:59.446Z,3.50
2019-03-25T09:41:28.001Z,2.73
2019-03-25T09:43:56.427Z,2.63
2019-03-25T09:46:24.870Z,2.33
2019-03-25T09:48:53.483Z,2.73
2019-03-25T09:51:21.930Z,2.50
2019-03-25T09:53:50.423Z,2.37
2019-03-25T09:56:19.067Z,2.43
2019-03-25T09:58:47.565Z,2.93
2019-03-25T10:01:16.147Z,3.20
2019-03-25T10:03:44.749Z,2.80
2019-03-25T10:06:13.286Z,2.53
2019-03-25T10:08:41.771Z,3.10
2019-03-25T10:11:10.364Z,3.17
2019-03-25T10:13:38.867Z,3.00
2019-03-25T10:16:07.388Z,3.30
2019-03-25T10:18:35.825Z,3.23
2019-03-25T10:21:04.351Z,2.73
2019-03-25T10:23:32.882Z,2.90
2019-03-25T10:26:01.305Z,3.37
2019-03-25T10:28:29.770Z,3.03
2019-03-25T10:30:58.359Z,2.77
2019-03-25T10:33:26.804Z,2.90
2019-03-25T10:35:55.445Z,2.33
2019-03-25T10:38:23.898Z,3.07
2019-03-25T10:40:52.421Z,3.00
2019-03-25T10:43:20.879Z,2.77
2019-03-25T10:45:49.393Z,3.33
2019-03-25T10:48:17.941Z,2.90
2019-03-25T10:50:46.457Z,2.27
2019-03-25T10:53:14.917Z,2.10
2019-03-25T10:55:43.339Z,2.30
2019-03-25T10:58:11.821Z,1.90
2019-03-25T11:00:40.487Z,2.70
2019-03-25T11:03:08.941Z,2.27
2019-03-25T11:05:37.399Z,2.07
2019-03-25T11:08:05.904Z,2.10
2019-03-25T11:10:34.388Z,2.43
2019-03-25T11:13:03.085Z,2.13
2019-03-25T11:15:31.565Z,2.70
2019-03-25T11:18:00.067Z,2.53
2019-03-25T11:20:28.502Z,2.27
2019-03-25T11:22:57.018Z,2.87
2019-03-25T11:25:25.462Z,2.30
2019-03-25T11:27:54.587Z,2.77
2019-03-25T11:30:47.588Z,2.50
2019-03-25T11:33:16.035Z,3.00
2019-03-25T11:35:44.502Z,2.67
2019-03-25T11:38:13.012Z,3.10
2019-03-25T11:40:41.539Z,2.70
2019-03-25T11:43:09.975Z,2.87
2019-03-25T11:45:38.503Z,2.20
2019-03-25T11:48:07.009Z,2.63
2019-03-25T11:50:35.486Z,2.50
2019-03-25T11:53:04.005Z,2.50
2019-03-25T11:55:32.441Z,2.80
2019-03-25T11:58:00.867Z,2.50
2019-03-25T12:00:29.618Z,2.37
2019-03-25T12:02:58.070Z,3.30
2019-03-25T12:05:26.527Z,3.00
2019-03-25T12:07:54.964Z,3.23
2019-03-25T12:10:23.512Z,3.60
2019-03-25T12:12:51.969Z,2.97
2019-03-25T12:15:20.580Z,5.50
2019-03-25T12:17:49.053Z,4.00
2019-03-25T12:20:36.840Z,3.47
2019-03-25T12:23:05.337Z,3.30
2019-03-25T12:25:33.848Z,3.33
2019-03-25T12:28:02.384Z,3.30
2019-03-25T12:30:30.807Z,3.73
2019-03-25T12:33:03.946Z,3.50
2019-03-25T12:35:29.439Z,3.50
2019-03-25T12:37:57.954Z,2.93
2019-03-25T12:40:26.533Z,2.63
2019-03-25T12:42:55.047Z,3.03
2019-03-25T12:45:23.483Z,3.17
2019-03-25T12:47:52.023Z,3.40
2019-03-25T12:50:20.594Z,3.10
2019-03-25T12:52:49.050Z,2.90
2019-03-25T12:55:17.466Z,2.30
2019-03-25T12:57:45.919Z,2.70
2019-03-25T13:00:14.876Z,2.70
2019-03-25T13:02:43.294Z,3.07
2019-03-25T13:05:12.011Z,3.10
2019-03-25T13:07:40.490Z,3.07
2019-03-25T13:10:09.371Z,2.27
2019-03-25T13:12:37.828Z,1.77
2019-03-25T13:15:08.302Z,1.40
2019-03-25T13:17:36.772Z,1.57
2019-03-25T13:20:08.353Z,1.73
2019-03-25T13:22:36.799Z,1.90
2019-03-25T13:25:05.956Z,2.10
2019-03-25T13:27:34.468Z,2.00
2019-03-25T13:30:03.189Z,2.77
2019-03-25T13:32:31.615Z,2.67
2019-03-25T13:35:00.093Z,2.37
2019-03-25T13:37:28.770Z,6.07
2019-03-25T13:39:57.249Z,3.20
2019-03-25T13:42:25.695Z,3.23
2019-03-25T13:44:57.436Z,2.90
2019-03-25T13:47:24.312Z,2.93
2019-03-25T13:49:52.763Z,3.00
2019-03-25T13:52:21.189Z,3.67
2019-03-25T13:54:49.631Z,2.70
2019-03-25T13:57:18.181Z,2.77
2019-03-25T13:59:46.707Z,3.20
2019-03-25T14:02:15.134Z,2.57
2019-03-25T14:04:43.587Z,2.73
2019-03-25T14:07:12.250Z,2.57
2019-03-25T14:09:40.700Z,2.50
2019-03-25T14:12:09.167Z,2.87
2019-03-25T14:14:37.619Z,2.43
2019-03-25T14:17:06.213Z,2.87
2019-03-25T14:19:34.634Z,2.70
2019-03-25T14:22:03.080Z,2.63
2019-03-25T14:24:31.511Z,2.40
2019-03-25T14:26:59.960Z,2.73
2019-03-25T14:29:28.407Z,2.97
2019-03-25T14:31:56.944Z,3.20
2019-03-25T14:34:25.385Z,3.13
2019-03-25T14:36:53.867Z,3.07
2019-03-25T14:39:22.572Z,3.70
2019-03-25T14:41:51.118Z,3.47
2019-03-25T14:44:19.548Z,4.50
2019-03-25T14:46:48.007Z,4.93
2019-03-25T14:49:16.449Z,5.10
2019-03-25T14:51:44.892Z,5.60
2019-03-25T14:54:13.328Z,6.77
2019-03-25T14:56:41.777Z,6.63
2019-03-25T14:59:10.324Z,4.00
2019-03-25T15:01:38.751Z,3.83
2019-03-25T15:04:07.359Z,4.53
2019-03-25T15:06:35.808Z,3.33
2019-03-25T15:09:06.861Z,3.47
2019-03-25T15:11:35.391Z,3.00
2019-03-25T15:14:04.007Z,3.87
2019-03-25T15:16:32.455Z,3.83
2019-03-25T15:19:00.974Z,3.07
2019-03-25T15:21:29.464Z,2.80
2019-03-25T15:23:57.955Z,3.07
2019-03-25T15:26:26.392Z,3.70
2019-03-25T15:28:54.856Z,3.60
2019-03-25T15:31:23.368Z,2.80
2019-03-25T15:33:51.885Z,3.40
2019-03-25T15:36:20.391Z,4.13
2019-03-25T15:38:48.924Z,4.40
2019-03-25T15:41:17.420Z,3.90
2019-03-25T15:43:45.939Z,3.57
2019-03-25T15:46:14.371Z,4.03
2019-03-25T15:48:42.824Z,3.73
2019-03-25T15:51:11.265Z,3.20
2019-03-25T15:53:39.712Z,4.13
2019-03-25T15:56:08.159Z,3.90
2019-03-25T15:58:36.658Z,3.03
2019-03-25T16:01:05.191Z,3.07
2019-03-25T16:03:33.609Z,3.23
2019-03-25T16:06:02.212Z,3.50
2019-03-25T16:08:30.643Z,4.07
2019-03-25T16:10:59.175Z,4.30
2019-03-25T16:13:27.712Z,4.10
2019-03-25T16:15:56.290Z,3.63
2019-03-25T16:18:35.960Z,4.77
2019-03-25T16:21:05.544Z,3.53
2019-03-25T16:23:34.059Z,4.03
2019-03-25T16:26:02.587Z,3.70
2019-03-25T16:28:31.195Z,3.30
2019-03-25T16:30:59.726Z,3.07
2019-03-25T16:33:28.147Z,3.27
2019-03-25T16:35:56.592Z,3.37
2019-03-25T16:38:25.141Z,3.50
2019-03-25T16:40:53.597Z,2.90
2019-03-25T16:43:22.103Z,2.90
2019-03-25T16:45:50.605Z,4.00
2019-03-25T16:48:19.162Z,3.33
2019-03-25T16:50:47.629Z,3.53
2019-03-25T16:53:16.150Z,4.83
2019-03-25T16:55:44.612Z,4.20
2019-03-25T16:58:13.043Z,4.33
2019-03-25T17:00:41.500Z,4.07
2019-03-25T17:03:09.942Z,4.40
2019-03-25T17:05:38.452Z,4.30
2019-03-25T17:08:06.966Z,3.53
2019-03-25T17:10:35.428Z,4.50
2019-03-25T17:13:03.887Z,4.00
2019-03-25T17:15:32.348Z,3.63
2019-03-25T17:18:00.811Z,3.67
2019-03-25T17:20:29.275Z,4.17
2019-03-25T17:22:57.773Z,4.57
2019-03-25T17:25:26.275Z,4.13
2019-03-25T17:27:54.768Z,4.83
2019-03-25T17:30:23.506Z,6.40
2019-03-25T17:32:51.973Z,6.83
2019-03-25T17:35:20.470Z,7.97
2019-03-25T17:37:49.088Z,7.87
2019-03-25T17:40:17.692Z,6.00
2019-03-25T17:42:46.180Z,4.90
2019-03-25T17:45:15.654Z,4.60
2019-03-25T17:47:44.151Z,4.87
2019-03-25T17:50:13.019Z,4.83
2019-03-25T17:52:41.485Z,4.27
2019-03-25T17:55:10.350Z,5.70
2019-03-25T17:57:38.811Z,5.83
2019-03-25T18:00:10.363Z,7.60
2019-03-25T18:02:38.904Z,5.77
2019-03-25T18:05:09.608Z,4.17
2019-03-25T18:07:38.128Z,4.70
2019-03-25T18:10:08.345Z,2.97
2019-03-25T18:12:39.088Z,3.37
2019-03-25T18:15:10.136Z,3.43
2019-03-25T18:17:38.946Z,2.87
2019-03-25T18:20:18.178Z,3.43
2019-03-25T18:22:39.752Z,3.10
2019-03-25T18:25:08.780Z,3.20
2019-03-25T18:27:37.229Z,3.30
2019-03-25T18:30:08.688Z,2.80
2019-03-25T18:32:37.139Z,2.87
2019-03-25T18:35:06.991Z,3.10
2019-03-25T18:37:35.575Z,3.17
2019-03-25T18:40:05.063Z,2.93
2019-03-25T18:42:33.528Z,2.60
2019-03-25T18:45:02.124Z,2.57
2019-03-25T18:47:30.629Z,2.67
2019-03-25T18:49:59.177Z,2.67
2019-03-25T18:52:27.708Z,2.77
2019-03-25T18:54:56.327Z,3.00
2019-03-25T18:57:24.751Z,2.90
2019-03-25T18:59:53.342Z,3.77
2019-03-25T19:02:21.852Z,3.57
2019-03-25T19:04:50.433Z,4.00
2019-03-25T19:07:19.074Z,3.30
2019-03-25T19:09:47.895Z,4.40
2019-03-25T19:12:16.336Z,4.93
2019-03-25T19:14:44.805Z,6.90
2019-03-25T19:17:13.491Z,6.00
2019-03-25T19:19:42.028Z,5.20
2019-03-25T19:22:12.647Z,6.03
2019-03-25T19:24:40.702Z,5.83
2019-03-25T19:27:09.283Z,4.40
2019-03-25T19:29:37.836Z,5.00
2019-03-25T19:32:07.172Z,6.17
2019-03-25T19:34:35.831Z,5.83
2019-03-25T19:37:04.338Z,4.43
2019-03-25T19:39:33.077Z,4.00
2019-03-25T19:42:01.579Z,3.70
2019-03-25T19:44:30.268Z,4.40
2019-03-25T19:46:58.773Z,3.23
2019-03-25T19:49:27.380Z,3.30
2019-03-25T19:51:55.885Z,3.20
2019-03-25T19:54:24.568Z,2.47
2019-03-25T19:56:53.176Z,4.30
2019-03-25T19:59:21.661Z,2.83
2019-03-25T20:01:50.192Z,4.00
2019-03-25T20:04:19.137Z,3.07
2019-03-25T20:06:47.721Z,2.80
2019-03-25T20:09:16.203Z,3.33
2019-03-25T20:11:44.756Z,2.70
2019-03-25T20:14:13.226Z,2.77
2019-03-25T20:16:41.740Z,3.57
2019-03-25T20:19:10.308Z,3.30
2019-03-25T20:21:38.863Z,3.07
2019-03-25T20:24:07.425Z,3.50
2019-03-25T20:26:35.887Z,3.60
2019-03-25T20:29:06.504Z,3.73
2019-03-25T20:31:34.586Z,3.87
2019-03-25T20:34:10.875Z,3.90
2019-03-25T20:36:33.403Z,3.50
2019-03-25T20:39:01.903Z,3.73
2019-03-25T20:41:30.417Z,4.53
2019-03-25T20:43:59.008Z,3.90
2019-03-25T20:46:27.489Z,4.23
2019-03-25T20:48:55.934Z,4.77
2019-03-25T20:51:24.405Z,4.33
2019-03-25T20:53:52.999Z,5.70
2019-03-25T20:56:21.559Z,4.20
2019-03-25T20:58:50.027Z,4.30
2019-03-25T21:01:18.493Z,4.20
2019-03-25T21:03:47.017Z,4.40
2019-03-25T21:06:15.540Z,4.37
2019-03-25T21:08:44.042Z,4.20
2019-03-25T21:11:12.638Z,4.50
2019-03-25T21:13:41.367Z,5.00
2019-03-25T21:16:10.103Z,4.10
2019-03-25T21:18:38.947Z,4.70
2019-03-25T21:21:07.634Z,4.03
2019-03-25T21:23:36.145Z,4.67
2019-03-25T21:26:04.869Z,4.00
2019-03-25T21:28:33.748Z,4.27
2019-03-25T21:31:02.202Z,4.70
2019-03-25T21:33:30.752Z,4.23
2019-03-25T21:35:59.328Z,5.07
2019-03-25T21:38:27.780Z,4.37
2019-03-25T21:40:56.365Z,4.57
2019-03-25T21:43:24.886Z,4.77
2019-03-25T21:45:53.371Z,3.90
2019-03-25T21:48:21.884Z,6.50
2019-03-25T21:50:50.409Z,4.33
2019-03-25T21:53:18.912Z,3.93
2019-03-25T21:55:47.535Z,4.23
2019-03-25T21:58:16.007Z,4.77
2019-03-25T22:00:44.620Z,5.33
2019-03-25T22:03:13.115Z,3.93
2019-03-25T22:05:41.630Z,4.30
2019-03-25T22:08:10.057Z,4.77
2019-03-25T22:10:38.524Z,4.83
2019-03-25T22:13:06.943Z,3.80
2019-03-25T22:15:35.379Z,4.50
2019-03-25T22:18:03.919Z,4.60
2019-03-25T22:20:32.420Z,5.03
2019-03-25T22:23:00.864Z,4.40
2019-03-25T22:25:29.300Z,4.73
2019-03-25T22:27:57.971Z,4.87
2019-03-25T22:30:26.467Z,3.83
2019-03-25T22:32:54.920Z,4.10
2019-03-25T22:35:23.335Z,4.43
2019-03-25T22:37:51.803Z,3.83
2019-03-25T22:40:20.241Z,3.70
2019-03-25T22:42:48.832Z,4.13
2019-03-25T22:45:20.379Z,4.40
2019-03-25T22:47:49.054Z,5.40
2019-03-25T22:50:28.875Z,5.57
2019-03-25T22:52:57.963Z,5.70
2019-03-25T22:55:26.836Z,6.70
2019-03-25T22:57:55.283Z,7.53
2019-03-25T23:00:25.798Z,5.40
2019-03-25T23:02:54.332Z,5.63
2019-03-25T23:05:22.775Z,5.20
2019-03-25T23:07:51.239Z,5.53
2019-03-25T23:10:19.737Z,5.90
2019-03-25T23:12:48.261Z,5.77
2019-03-25T23:15:16.724Z,5.53
2019-03-25T23:17:45.258Z,5.70
2019-03-25T23:20:13.836Z,6.23
2019-03-25T23:22:42.293Z,6.00
2019-03-25T23:25:10.979Z,7.27
2019-03-25T23:27:39.396Z,5.43
2019-03-25T23:30:08.403Z,5.40
2019-03-25T23:32:36.826Z,5.70
2019-03-25T23:35:06.243Z,5.73
2019-03-25T23:37:34.686Z,5.20
2019-03-25T23:40:04.417Z,4.63
2019-03-25T23:42:32.909Z,5.33
2019-03-25T23:45:01.383Z,5.70
2019-03-25T23:47:29.864Z,5.07
2019-03-25T23:49:59.227Z,5.67
2019-03-25T23:52:27.652Z,5.77
2019-03-25T23:54:56.119Z,5.03
2019-03-25T23:57:24.563Z,5.50
2019-03-25T23:59:53.021Z,5.23
